createdAt,value
2023-12-11T00:00:46.507Z,3.50
2023-12-11T00:01:49.156Z,5.40
2023-12-11T00:02:51.605Z,6.20
2023-12-11T00:03:54.997Z,3.50
2023-12-11T00:04:57.888Z,6.50
2023-12-11T00:06:00.686Z,6.50
2023-12-11T00:07:03.311Z,5.40
2023-12-11T00:08:07.333Z,5.90
2023-12-11T00:09:10.881Z,5.30
2023-12-11T00:10:14.272Z,7.40
2023-12-11T00:11:16.554Z,5.60
2023-12-11T00:12:18.853Z,6.20
2023-12-11T00:13:21.217Z,6.20
2023-12-11T00:14:23.608Z,5.60
2023-12-11T00:15:26.043Z,5.40
2023-12-11T00:16:28.552Z,5.00
2023-12-11T00:17:31.318Z,4.60
2023-12-11T00:18:34.301Z,5.70
2023-12-11T00:19:37.407Z,6.10
2023-12-11T00:20:40.068Z,5.60
2023-12-11T00:21:43.013Z,3.90
2023-12-11T00:22:45.881Z,6.55
2023-12-11T00:23:48.936Z,5.09
2023-12-11T00:24:51.804Z,6.00
2023-12-11T00:25:54.318Z,5.00
2023-12-11T00:26:56.743Z,6.20
2023-12-11T00:27:59.584Z,6.40
2023-12-11T00:29:01.942Z,4.50
2023-12-11T00:30:05.195Z,4.20
2023-12-11T00:32:10.578Z,1.64
2023-12-11T00:33:12.933Z,4.80
2023-12-11T00:34:15.540Z,6.30
2023-12-11T00:35:18.257Z,2.80
2023-12-11T00:36:22.273Z,4.70
2023-12-11T00:37:25.190Z,5.60
2023-12-11T00:38:28.020Z,5.45
2023-12-11T00:39:31.259Z,5.73
2023-12-11T00:40:35.461Z,3.40
2023-12-11T00:41:37.896Z,3.90
2023-12-11T00:42:40.508Z,5.70
2023-12-11T00:43:45.596Z,6.10
2023-12-11T00:44:47.222Z,5.20
2023-12-11T00:45:49.625Z,4.20
2023-12-11T00:46:52.532Z,4.82
2023-12-11T00:47:55.120Z,4.80
2023-12-11T00:48:57.737Z,5.30
2023-12-11T00:50:02.796Z,3.60
2023-12-11T00:51:05.055Z,4.60
2023-12-11T00:52:08.413Z,5.20
2023-12-11T00:53:10.726Z,6.30
2023-12-11T00:54:13.488Z,5.50
2023-12-11T00:55:15.925Z,4.80
2023-12-11T00:56:20.422Z,5.10
2023-12-11T00:57:22.680Z,5.80
2023-12-11T00:58:24.938Z,5.40
2023-12-11T00:59:27.182Z,0.20
2023-12-11T01:00:30.232Z,6.00
2023-12-11T01:01:33.175Z,5.00
2023-12-11T01:02:35.662Z,4.82
2023-12-11T01:03:39.196Z,5.50
2023-12-11T01:04:42.739Z,4.60
2023-12-11T01:05:45.210Z,4.70
2023-12-11T01:06:47.805Z,6.10
2023-12-11T01:07:50.176Z,5.60
2023-12-11T01:08:53.102Z,4.00
2023-12-11T01:09:56.299Z,5.82
2023-12-11T01:11:00.203Z,6.70
2023-12-11T01:12:02.659Z,6.30
2023-12-11T01:13:05.387Z,5.90
2023-12-11T01:14:07.618Z,6.10
2023-12-11T01:15:10.231Z,6.00
2023-12-11T01:16:12.975Z,5.50
2023-12-11T01:17:37.168Z,7.00
2023-12-11T01:18:19.723Z,6.10
2023-12-11T01:19:22.156Z,5.20
2023-12-11T01:20:26.334Z,4.50
2023-12-11T01:21:28.839Z,5.80
2023-12-11T01:22:31.117Z,6.40
2023-12-11T01:23:33.891Z,7.50
2023-12-11T01:24:36.199Z,5.00
2023-12-11T01:25:38.921Z,4.80
2023-12-11T01:26:41.604Z,6.27
2023-12-11T01:27:44.370Z,5.80
2023-12-11T01:28:46.993Z,5.82
2023-12-11T01:29:49.744Z,5.20
2023-12-11T01:30:52.324Z,5.60
2023-12-11T01:31:54.824Z,5.00
2023-12-11T01:32:57.149Z,3.60
2023-12-11T01:34:00.140Z,4.60
2023-12-11T01:35:02.486Z,5.40
2023-12-11T01:36:05.663Z,5.60
2023-12-11T01:37:08.310Z,5.30
2023-12-11T01:38:10.689Z,3.70
2023-12-11T01:39:13.116Z,5.60
2023-12-11T01:40:16.614Z,5.00
2023-12-11T01:41:18.931Z,5.20
2023-12-11T01:42:21.670Z,5.60
2023-12-11T01:43:24.044Z,5.80
2023-12-11T01:44:26.512Z,4.80
2023-12-11T01:45:29.004Z,5.80
2023-12-11T01:46:33.239Z,4.70
2023-12-11T01:47:35.663Z,5.50
2023-12-11T01:48:38.925Z,5.20
2023-12-11T01:49:42.283Z,6.10
2023-12-11T01:50:45.685Z,4.80
2023-12-11T01:51:48.990Z,5.30
2023-12-11T01:52:51.508Z,6.80
2023-12-11T01:53:53.923Z,3.70
2023-12-11T01:54:56.303Z,7.40
2023-12-11T01:55:59.018Z,5.20
2023-12-11T01:57:01.827Z,5.20
2023-12-11T01:58:06.624Z,5.30
2023-12-11T01:59:09.428Z,5.50
2023-12-11T02:00:14.819Z,7.00
2023-12-11T02:01:19.704Z,6.60
2023-12-11T02:02:22.628Z,6.10
2023-12-11T02:03:25.297Z,5.80
2023-12-11T02:04:27.748Z,5.40
2023-12-11T02:05:30.204Z,4.80
2023-12-11T02:06:33.062Z,7.30
2023-12-11T02:07:35.431Z,7.20
2023-12-11T02:08:37.745Z,7.60
2023-12-11T02:09:41.011Z,8.10
2023-12-11T02:10:44.180Z,6.30
2023-12-11T02:11:47.581Z,6.36
2023-12-11T02:12:50.361Z,6.00
2023-12-11T02:13:53.097Z,7.30
2023-12-11T02:14:55.488Z,6.30
2023-12-11T02:15:58.072Z,7.40
2023-12-11T02:17:02.595Z,7.09
2023-12-11T02:18:05.713Z,6.30
2023-12-11T02:19:08.190Z,7.40
2023-12-11T02:20:12.220Z,7.73
2023-12-11T02:21:15.416Z,8.20
2023-12-11T02:22:18.270Z,6.70
2023-12-11T02:23:30.876Z,8.00
2023-12-11T02:24:36.990Z,6.60
2023-12-11T02:25:41.203Z,8.30
2023-12-11T02:26:44.518Z,8.40
2023-12-11T02:27:46.861Z,7.45
2023-12-11T02:28:49.527Z,7.70
2023-12-11T02:29:52.157Z,8.50
2023-12-11T02:30:54.600Z,7.40
2023-12-11T02:31:57.286Z,7.40
2023-12-11T02:32:59.991Z,7.70
2023-12-11T02:34:02.649Z,6.90
2023-12-11T02:35:06.061Z,4.80
2023-12-11T02:36:09.217Z,8.70
2023-12-11T02:37:11.758Z,7.70
2023-12-11T02:38:14.094Z,7.60
2023-12-11T02:39:16.416Z,8.00
2023-12-11T02:40:19.606Z,7.10
2023-12-11T02:41:21.884Z,6.70
2023-12-11T02:42:24.175Z,7.80
2023-12-11T02:43:26.601Z,7.00
2023-12-11T02:44:29.329Z,4.40
2023-12-11T02:45:31.721Z,6.50
2023-12-11T02:46:40.853Z,7.50
2023-12-11T02:47:43.402Z,7.10
2023-12-11T02:48:45.883Z,6.30
2023-12-11T02:49:48.389Z,8.40
2023-12-11T02:50:51.444Z,7.50
2023-12-11T02:51:54.103Z,7.27
2023-12-11T02:54:07.179Z,9.10
2023-12-11T02:55:09.481Z,8.30
2023-12-11T02:56:13.044Z,8.40
2023-12-11T02:57:15.424Z,7.70
2023-12-11T02:58:17.879Z,8.20
2023-12-11T02:59:20.499Z,8.60
2023-12-11T03:00:24.890Z,9.40
2023-12-11T03:01:27.322Z,7.80
2023-12-11T03:02:29.946Z,3.10
2023-12-11T03:03:32.367Z,7.50
2023-12-11T03:04:34.923Z,7.60
2023-12-11T03:05:37.913Z,7.50
2023-12-11T03:06:40.925Z,7.10
2023-12-11T03:07:43.361Z,8.10
2023-12-11T03:08:45.652Z,6.60
2023-12-11T03:09:47.980Z,7.40
2023-12-11T03:10:50.720Z,7.20
2023-12-11T03:11:53.790Z,8.00
2023-12-11T03:12:56.127Z,7.80
2023-12-11T03:13:58.501Z,7.90
2023-12-11T03:15:01.829Z,7.80
2023-12-11T03:16:05.010Z,7.80
2023-12-11T03:17:07.632Z,7.70
2023-12-11T03:18:11.549Z,6.90
2023-12-11T03:19:14.021Z,7.40
2023-12-11T03:20:18.438Z,7.40
2023-12-11T03:21:20.726Z,6.90
2023-12-11T03:22:23.282Z,7.90
2023-12-11T03:23:26.230Z,7.00
2023-12-11T03:24:28.485Z,8.20
2023-12-11T03:25:31.262Z,7.80
2023-12-11T03:26:34.219Z,7.50
2023-12-11T03:27:36.649Z,7.30
2023-12-11T03:28:39.122Z,8.50
2023-12-11T03:29:41.609Z,7.20
2023-12-11T03:30:44.317Z,7.80
2023-12-11T03:31:46.757Z,8.50
2023-12-11T03:32:49.258Z,6.90
2023-12-11T03:33:52.168Z,6.90
2023-12-11T03:34:54.751Z,8.10
2023-12-11T03:35:57.019Z,7.20
2023-12-11T03:36:59.627Z,8.10
2023-12-11T03:38:01.936Z,7.70
2023-12-11T03:39:04.750Z,7.50
2023-12-11T03:40:09.014Z,7.50
2023-12-11T03:41:12.095Z,6.80
2023-12-11T03:42:14.521Z,7.82
2023-12-11T03:43:17.303Z,6.80
2023-12-11T03:44:19.671Z,6.40
2023-12-11T03:45:22.303Z,7.90
2023-12-11T03:46:25.248Z,8.27
2023-12-11T03:47:27.818Z,7.30
2023-12-11T03:48:30.585Z,7.50
2023-12-11T03:49:33.615Z,7.70
2023-12-11T03:50:36.364Z,7.50
2023-12-11T03:51:38.729Z,7.50
2023-12-11T03:52:42.110Z,7.10
2023-12-11T03:53:44.470Z,8.50
2023-12-11T03:54:47.139Z,7.50
2023-12-11T03:55:49.445Z,8.10
2023-12-11T03:56:52.243Z,8.00
2023-12-11T03:57:54.691Z,8.10
2023-12-11T03:58:57.343Z,7.30
2023-12-11T03:59:59.948Z,7.40
2023-12-11T04:01:02.444Z,7.50
2023-12-11T04:02:05.785Z,7.60
2023-12-11T04:03:08.695Z,7.30
2023-12-11T04:04:11.129Z,8.80
2023-12-11T04:05:13.557Z,8.40
2023-12-11T04:06:17.479Z,9.00
2023-12-11T04:07:19.847Z,3.30
2023-12-11T04:08:22.591Z,8.50
2023-12-11T04:09:25.075Z,8.10
2023-12-11T04:10:27.901Z,7.45
2023-12-11T04:11:30.258Z,8.80
2023-12-11T04:12:32.834Z,9.00
2023-12-11T04:13:35.738Z,9.50
2023-12-11T04:14:38.068Z,10.10
2023-12-11T04:15:40.435Z,8.60
2023-12-11T04:16:43.993Z,9.09
2023-12-11T04:17:46.843Z,10.09
2023-12-11T04:18:49.294Z,8.90
2023-12-11T04:19:52.282Z,11.30
2023-12-11T04:20:56.209Z,10.60
2023-12-11T04:21:58.907Z,9.60
2023-12-11T04:23:01.160Z,10.70
2023-12-11T04:24:04.308Z,11.10
2023-12-11T04:25:07.069Z,11.00
2023-12-11T04:26:11.529Z,11.10
2023-12-11T04:27:13.900Z,10.90
2023-12-11T04:28:16.754Z,11.10
2023-12-11T04:29:19.076Z,10.00
2023-12-11T04:30:23.328Z,10.50
2023-12-11T04:31:25.628Z,11.00
2023-12-11T04:32:28.351Z,9.30
2023-12-11T04:33:30.910Z,9.40
2023-12-11T04:34:33.538Z,9.40
2023-12-11T04:35:35.956Z,8.90
2023-12-11T04:36:43.333Z,9.00
2023-12-11T04:37:46.304Z,9.90
2023-12-11T04:38:48.630Z,7.60
2023-12-11T04:39:51.445Z,8.90
2023-12-11T04:40:54.437Z,11.80
2023-12-11T04:41:57.075Z,11.10
2023-12-11T04:42:59.470Z,11.90
2023-12-11T04:44:02.446Z,10.70
2023-12-11T04:45:05.867Z,10.82
2023-12-11T04:46:09.829Z,10.60
2023-12-11T04:47:12.202Z,12.00
2023-12-11T04:48:14.713Z,10.50
2023-12-11T04:49:17.235Z,12.50
2023-12-11T04:50:21.281Z,11.50
2023-12-11T04:51:23.746Z,11.45
2023-12-11T04:52:26.185Z,12.20
2023-12-11T04:53:28.509Z,10.20
2023-12-11T04:54:30.912Z,12.80
2023-12-11T04:55:33.312Z,12.30
2023-12-11T04:56:36.173Z,10.90
2023-12-11T04:57:38.470Z,10.40
2023-12-11T04:58:40.746Z,12.50
2023-12-11T04:59:44.241Z,13.10
2023-12-11T05:00:49.487Z,11.60
2023-12-11T05:01:52.003Z,13.18
2023-12-11T05:02:54.842Z,13.10
2023-12-11T05:03:57.747Z,10.45
2023-12-11T05:05:00.062Z,11.50
2023-12-11T05:06:02.513Z,9.30
2023-12-11T05:07:04.859Z,9.40
2023-12-11T05:08:07.164Z,8.60
2023-12-11T05:09:10.036Z,0.20
2023-12-11T05:10:13.994Z,10.30
2023-12-11T05:11:16.900Z,12.10
2023-12-11T05:12:19.468Z,12.09
2023-12-11T05:13:22.301Z,11.90
2023-12-11T05:14:24.795Z,12.91
2023-12-11T05:15:27.157Z,13.10
2023-12-11T05:16:31.647Z,15.30
2023-12-11T05:17:34.743Z,14.70
2023-12-11T05:18:37.406Z,14.00
2023-12-11T05:19:40.397Z,13.20
2023-12-11T05:20:43.193Z,11.10
2023-12-11T05:21:46.139Z,14.20
2023-12-11T05:22:51.316Z,11.73
2023-12-11T05:23:53.705Z,10.40
2023-12-11T05:24:56.416Z,10.50
2023-12-11T05:25:58.889Z,12.10
2023-12-11T05:27:03.167Z,12.80
2023-12-11T05:28:05.470Z,14.10
2023-12-11T05:29:07.770Z,12.10
2023-12-11T05:30:12.362Z,13.00
2023-12-11T05:31:15.857Z,11.90
2023-12-11T05:32:18.150Z,12.80
2023-12-11T05:33:20.560Z,10.90
2023-12-11T05:34:23.076Z,6.80
2023-12-11T05:35:26.130Z,9.60
2023-12-11T05:36:29.313Z,8.10
2023-12-11T05:37:32.553Z,9.18
2023-12-11T05:38:35.666Z,9.30
2023-12-11T05:39:41.420Z,9.70
2023-12-11T05:40:44.562Z,10.10
2023-12-11T05:41:47.172Z,9.70
2023-12-11T05:42:50.054Z,9.10
2023-12-11T05:43:52.710Z,8.73
2023-12-11T05:44:54.952Z,7.40
2023-12-11T05:45:57.775Z,8.30
2023-12-11T05:47:00.669Z,8.70
2023-12-11T05:48:03.319Z,7.40
2023-12-11T05:49:06.203Z,8.00
2023-12-11T05:50:10.298Z,8.70
2023-12-11T05:51:13.095Z,8.00
2023-12-11T05:52:16.109Z,9.36
2023-12-11T05:54:35.931Z,7.90
2023-12-11T05:55:38.959Z,9.10
2023-12-11T05:56:41.649Z,8.90
2023-12-11T05:57:46.306Z,8.90
2023-12-11T05:58:48.553Z,7.60
2023-12-11T05:59:51.072Z,8.36
2023-12-11T06:00:54.192Z,8.80
2023-12-11T06:01:56.690Z,8.55
2023-12-11T06:02:59.521Z,8.10
2023-12-11T06:04:02.496Z,7.70
2023-12-11T06:05:06.067Z,7.90
2023-12-11T06:06:17.999Z,6.50
2023-12-11T06:07:20.329Z,7.80
2023-12-11T06:08:23.733Z,8.50
2023-12-11T06:09:27.118Z,8.90
2023-12-11T06:10:30.334Z,7.80
2023-12-11T06:11:33.537Z,8.90
2023-12-11T06:12:37.059Z,9.40
2023-12-11T06:13:39.447Z,9.60
2023-12-11T06:14:44.529Z,10.90
2023-12-11T06:15:46.540Z,9.20
2023-12-11T06:16:50.000Z,10.80
2023-12-11T06:17:52.526Z,8.91
2023-12-11T06:18:55.116Z,11.10
2023-12-11T06:19:57.571Z,8.80
2023-12-11T06:21:02.894Z,9.91
2023-12-11T06:22:05.813Z,11.50
2023-12-11T06:23:08.080Z,10.60
2023-12-11T06:24:10.466Z,9.20
2023-12-11T06:25:13.388Z,10.00
2023-12-11T06:26:31.024Z,6.60
2023-12-11T06:27:34.001Z,9.00
2023-12-11T06:29:56.090Z,11.70
2023-12-11T06:30:59.287Z,10.90
2023-12-11T06:32:01.981Z,7.00
2023-12-11T06:33:04.269Z,10.70
2023-12-11T06:34:07.152Z,12.80
2023-12-11T06:35:10.776Z,11.55
2023-12-11T06:36:14.577Z,11.50
2023-12-11T06:37:17.008Z,11.40
2023-12-11T06:38:20.552Z,12.80
2023-12-11T06:39:23.236Z,14.64
2023-12-11T06:40:26.714Z,18.50
2023-12-11T06:41:29.147Z,17.10
2023-12-11T06:42:31.819Z,20.20
2023-12-11T06:43:34.174Z,18.50
2023-12-11T06:44:38.811Z,27.40
2023-12-11T06:45:41.262Z,26.60
2023-12-11T06:46:43.675Z,22.60
2023-12-11T06:47:46.449Z,19.80
2023-12-11T06:48:49.394Z,17.50
2023-12-11T06:49:51.979Z,15.30
2023-12-11T06:50:54.570Z,11.60
2023-12-11T06:51:58.407Z,10.60
2023-12-11T06:53:00.915Z,9.90
2023-12-11T06:54:03.331Z,11.20
2023-12-11T06:55:06.350Z,10.80
2023-12-11T06:56:11.632Z,8.40
2023-12-11T06:57:13.927Z,6.70
2023-12-11T06:58:16.458Z,5.10
2023-12-11T06:59:19.237Z,5.50
2023-12-11T07:00:23.212Z,5.30
2023-12-11T07:01:33.439Z,4.00
2023-12-11T07:02:36.217Z,3.30
2023-12-11T07:03:40.564Z,6.80
2023-12-11T07:04:43.790Z,4.80
2023-12-11T07:05:47.416Z,4.30
2023-12-11T07:06:50.854Z,5.40
2023-12-11T07:07:53.268Z,5.00
2023-12-11T07:08:55.959Z,4.00
2023-12-11T07:09:59.305Z,4.00
2023-12-11T07:11:02.689Z,3.80
2023-12-11T07:12:05.746Z,3.50
2023-12-11T07:13:08.545Z,4.70
2023-12-11T07:14:11.519Z,3.50
2023-12-11T07:15:14.428Z,4.09
2023-12-11T07:16:18.267Z,3.70
2023-12-11T07:17:21.305Z,4.40
2023-12-11T07:18:24.037Z,2.91
2023-12-11T07:19:29.137Z,3.40
2023-12-11T07:20:31.764Z,3.10
2023-12-11T07:21:34.082Z,5.60
2023-12-11T07:22:36.513Z,2.90
2023-12-11T07:23:39.805Z,2.80
2023-12-11T07:24:42.290Z,3.90
2023-12-11T07:25:44.700Z,3.50
2023-12-11T07:26:47.228Z,2.80
2023-12-11T07:27:49.954Z,4.00
2023-12-11T07:28:52.239Z,7.60
2023-12-11T07:29:54.579Z,26.90
2023-12-11T07:30:57.183Z,17.00
2023-12-11T07:31:59.485Z,10.80
2023-12-11T07:33:02.055Z,6.80
2023-12-11T07:34:04.665Z,4.40
2023-12-11T07:35:09.563Z,2.80
2023-12-11T07:36:13.742Z,3.20
2023-12-11T07:37:16.183Z,2.90
2023-12-11T07:38:18.620Z,3.40
2023-12-11T07:39:21.076Z,3.40
2023-12-11T07:40:25.228Z,3.50
2023-12-11T07:41:28.069Z,2.00
2023-12-11T07:42:30.748Z,2.90
2023-12-11T07:43:34.118Z,3.40
2023-12-11T07:44:37.536Z,3.00
2023-12-11T07:45:40.103Z,3.00
2023-12-11T07:46:43.488Z,3.27
2023-12-11T07:47:47.222Z,3.20
2023-12-11T07:48:50.784Z,3.20
2023-12-11T07:49:54.058Z,3.50
2023-12-11T07:50:56.491Z,3.20
2023-12-11T07:51:59.328Z,3.80
2023-12-11T07:53:02.266Z,3.27
2023-12-11T07:54:04.608Z,3.60
2023-12-11T07:55:07.726Z,3.60
2023-12-11T07:56:22.804Z,2.40
2023-12-11T07:57:25.757Z,1.60
2023-12-11T07:58:28.195Z,2.60
2023-12-11T07:59:30.429Z,2.80
2023-12-11T08:00:33.835Z,0.00
2023-12-11T08:01:36.969Z,2.64
2023-12-11T08:02:39.772Z,3.36
2023-12-11T08:03:42.427Z,1.73
2023-12-11T08:04:45.486Z,4.20
2023-12-11T08:05:48.290Z,3.00
2023-12-11T08:06:51.096Z,4.50
2023-12-11T08:07:53.399Z,3.90
2023-12-11T08:08:55.789Z,5.10
2023-12-11T08:09:58.173Z,5.20
2023-12-11T08:11:01.183Z,5.00
2023-12-11T08:12:03.945Z,4.60
2023-12-11T08:13:06.669Z,6.73
2023-12-11T08:14:09.010Z,9.20
2023-12-11T08:15:11.304Z,7.60
2023-12-11T08:16:16.664Z,8.40
2023-12-11T08:17:19.341Z,7.40
2023-12-11T08:18:21.730Z,9.10
2023-12-11T08:19:24.043Z,7.30
2023-12-11T08:20:28.189Z,7.00
2023-12-11T08:21:31.344Z,8.10
2023-12-11T08:22:33.820Z,7.10
2023-12-11T08:23:36.056Z,7.30
2023-12-11T08:24:38.368Z,7.80
2023-12-11T08:25:40.726Z,5.50
2023-12-11T08:26:43.801Z,5.60
2023-12-11T08:27:47.058Z,5.82
2023-12-11T08:28:49.274Z,4.70
2023-12-11T08:29:52.180Z,5.20
2023-12-11T08:30:55.312Z,3.50
2023-12-11T08:31:58.049Z,4.70
2023-12-11T08:33:00.505Z,5.80
2023-12-11T08:34:02.991Z,39.70
2023-12-11T08:35:06.111Z,44.60
2023-12-11T08:36:10.381Z,36.70
2023-12-11T08:37:13.349Z,32.30
2023-12-11T08:38:17.851Z,26.90
2023-12-11T08:39:20.175Z,19.20
2023-12-11T08:40:24.416Z,13.60
2023-12-11T08:41:27.173Z,9.00
2023-12-11T08:42:30.140Z,0.20
2023-12-11T08:43:33.233Z,5.73
2023-12-11T08:44:35.598Z,6.91
2023-12-11T08:45:38.063Z,4.80
2023-12-11T08:46:40.518Z,4.10
2023-12-11T08:47:43.439Z,3.50
2023-12-11T08:48:46.751Z,3.70
2023-12-11T08:49:49.441Z,3.45
2023-12-11T08:50:52.413Z,3.40
2023-12-11T08:51:55.259Z,2.50
2023-12-11T08:52:58.368Z,1.64
2023-12-11T08:54:01.309Z,2.55
2023-12-11T08:55:04.274Z,3.00
2023-12-11T08:56:07.082Z,2.20
2023-12-11T08:57:10.429Z,2.40
2023-12-11T08:58:12.932Z,2.30
2023-12-11T08:59:15.164Z,2.20
2023-12-11T09:00:19.006Z,2.27
2023-12-11T09:01:22.647Z,3.20
2023-12-11T09:02:25.040Z,2.60
2023-12-11T09:03:27.299Z,3.10
2023-12-11T09:04:30.276Z,3.30
2023-12-11T09:05:33.061Z,3.27
2023-12-11T09:06:36.644Z,2.55
2023-12-11T09:07:39.608Z,2.40
2023-12-11T09:08:42.490Z,2.30
2023-12-11T09:09:44.950Z,2.45
2023-12-11T09:10:47.809Z,2.09
2023-12-11T09:11:50.169Z,2.80
2023-12-11T09:12:54.978Z,2.50
2023-12-11T09:13:57.725Z,3.64
2023-12-11T09:15:00.575Z,3.30
2023-12-11T09:16:03.231Z,4.36
2023-12-11T09:17:05.643Z,2.80
2023-12-11T09:18:09.717Z,4.90
2023-12-11T09:19:12.576Z,4.20
2023-12-11T09:20:16.243Z,4.70
2023-12-11T09:21:19.621Z,3.64
2023-12-11T09:22:22.227Z,4.10
2023-12-11T09:23:24.773Z,6.30
2023-12-11T09:24:27.156Z,4.50
2023-12-11T09:25:30.944Z,5.40
2023-12-11T09:26:37.414Z,6.00
2023-12-11T09:27:42.691Z,5.40
2023-12-11T09:28:51.495Z,6.30
2023-12-11T09:29:53.378Z,5.20
2023-12-11T09:31:00.274Z,3.60
2023-12-11T09:32:05.353Z,3.40
2023-12-11T09:33:10.232Z,3.60
2023-12-11T09:34:15.550Z,3.70
2023-12-11T09:35:21.248Z,3.50
2023-12-11T09:36:32.009Z,3.20
2023-12-11T09:37:36.472Z,2.50
2023-12-11T09:38:40.423Z,3.30
2023-12-11T09:39:47.851Z,3.20
2023-12-11T09:40:51.806Z,2.90
2023-12-11T09:41:58.769Z,2.80
2023-12-11T09:43:10.858Z,3.00
2023-12-11T09:44:18.437Z,3.20
2023-12-11T09:45:25.820Z,5.10
2023-12-11T09:47:09.143Z,3.90
2023-12-11T09:48:15.372Z,2.80
2023-12-11T09:49:19.319Z,3.60
2023-12-11T09:50:25.666Z,7.50
2023-12-11T09:51:30.785Z,7.70
2023-12-11T09:52:41.201Z,5.20
2023-12-11T09:53:45.253Z,6.50
2023-12-11T09:54:50.415Z,4.20
2023-12-11T09:55:54.104Z,4.60
2023-12-11T09:57:00.481Z,5.60
2023-12-11T09:58:06.404Z,4.60
2023-12-11T09:59:16.597Z,3.20
2023-12-11T10:00:35.669Z,3.50
2023-12-11T10:01:48.794Z,3.50
2023-12-11T10:02:56.402Z,4.40
2023-12-11T10:04:01.262Z,5.50
2023-12-11T10:05:09.547Z,4.20
2023-12-11T10:06:21.457Z,3.40
2023-12-11T10:07:26.086Z,3.70
2023-12-11T10:08:32.656Z,5.30
2023-12-11T10:09:41.109Z,5.80
2023-12-11T10:10:46.610Z,5.10
2023-12-11T10:12:00.808Z,7.80
2023-12-11T10:13:06.498Z,5.20
2023-12-11T10:14:12.095Z,4.50
2023-12-11T10:16:34.196Z,5.70
2023-12-11T10:17:36.547Z,4.90
2023-12-11T10:18:48.980Z,4.60
2023-12-11T10:19:52.084Z,2.00
2023-12-11T10:20:56.549Z,3.50
2023-12-11T10:21:59.120Z,3.00
2023-12-11T10:23:16.700Z,4.00
2023-12-11T10:24:19.925Z,2.70
2023-12-11T10:25:30.035Z,3.20
2023-12-11T10:26:38.712Z,1.70
2023-12-11T10:27:41.574Z,3.80
2023-12-11T10:28:44.375Z,3.40
2023-12-11T10:29:47.095Z,3.30
2023-12-11T10:31:03.429Z,3.30
2023-12-11T10:32:06.204Z,2.00
2023-12-11T10:33:09.068Z,3.50
2023-12-11T10:34:11.782Z,3.00
2023-12-11T10:35:24.634Z,3.18
2023-12-11T10:36:27.918Z,2.70
2023-12-11T10:37:30.669Z,3.00
2023-12-11T10:38:34.533Z,3.91
2023-12-11T10:39:37.345Z,3.80
2023-12-11T10:41:51.886Z,5.00
2023-12-11T10:42:58.570Z,4.00
2023-12-11T10:44:12.640Z,3.10
2023-12-11T10:45:06.947Z,4.20
2023-12-11T10:46:12.105Z,3.20
2023-12-11T10:47:16.366Z,0.70
2023-12-11T10:48:19.825Z,3.80
2023-12-11T10:49:23.592Z,3.50
2023-12-11T10:50:27.024Z,4.20
2023-12-11T10:51:30.456Z,3.64
2023-12-11T10:52:34.564Z,4.40
2023-12-11T10:53:36.841Z,5.10
2023-12-11T10:54:40.218Z,6.30
2023-12-11T10:55:43.550Z,6.10
2023-12-11T10:56:48.226Z,8.70
2023-12-11T10:57:52.008Z,9.00
2023-12-11T10:58:55.264Z,10.10
2023-12-11T10:59:58.203Z,8.80
2023-12-11T11:01:02.788Z,9.20
2023-12-11T11:02:08.021Z,9.80
2023-12-11T11:03:11.813Z,9.70
2023-12-11T11:04:17.728Z,13.70
2023-12-11T11:05:21.286Z,9.50
2023-12-11T11:06:27.327Z,5.50
2023-12-11T11:07:33.978Z,7.80
2023-12-11T11:08:55.736Z,6.10
2023-12-11T11:10:04.634Z,5.90
2023-12-11T11:12:41.353Z,6.20
2023-12-11T11:13:59.246Z,6.50
2023-12-11T11:15:04.275Z,4.60
2023-12-11T11:16:07.308Z,4.90
2023-12-11T11:17:10.054Z,5.27
2023-12-11T11:19:29.020Z,6.20
2023-12-11T11:20:40.404Z,7.10
2023-12-11T11:22:04.483Z,9.30
2023-12-11T11:23:20.803Z,8.80
2023-12-11T11:24:25.780Z,8.30
2023-12-11T11:25:35.768Z,9.40
2023-12-11T11:26:40.147Z,7.70
2023-12-11T11:27:42.562Z,6.70
2023-12-11T11:28:45.278Z,6.70
2023-12-11T11:29:47.854Z,7.50
2023-12-11T11:30:53.091Z,5.00
2023-12-11T11:31:55.906Z,7.00
2023-12-11T11:32:58.549Z,7.00
2023-12-11T11:34:01.417Z,9.40
2023-12-11T11:35:07.245Z,9.20
2023-12-11T11:36:12.161Z,10.80
2023-12-11T11:37:17.168Z,5.70
2023-12-11T11:38:21.038Z,15.10
2023-12-11T11:39:24.591Z,14.90
2023-12-11T11:40:34.616Z,16.00
2023-12-11T11:41:38.971Z,15.80
2023-12-11T11:42:41.627Z,16.30
2023-12-11T11:43:48.461Z,16.00
2023-12-11T11:45:04.596Z,14.50
2023-12-11T11:46:08.346Z,14.10
2023-12-11T11:47:10.744Z,15.36
2023-12-11T11:48:14.136Z,15.20
2023-12-11T11:49:33.244Z,15.90
2023-12-11T11:50:36.488Z,13.90
2023-12-11T11:51:39.673Z,9.60
2023-12-11T11:52:43.912Z,12.80
2023-12-11T11:53:50.560Z,15.70
2023-12-11T11:55:02.511Z,15.60
2023-12-11T11:56:06.257Z,17.30
2023-12-11T11:57:08.748Z,12.80
2023-12-11T11:58:12.620Z,9.60
2023-12-11T11:59:15.012Z,9.30
2023-12-11T12:01:37.270Z,12.10
2023-12-11T12:02:40.141Z,15.10
2023-12-11T12:03:43.385Z,15.10
2023-12-11T12:04:46.341Z,15.00
2023-12-11T12:05:56.227Z,21.80
2023-12-11T12:07:01.838Z,20.90
2023-12-11T12:08:11.679Z,15.00
2023-12-11T12:09:20.975Z,12.60
2023-12-11T12:10:25.809Z,9.80
2023-12-11T12:11:28.689Z,11.30
2023-12-11T12:12:31.042Z,8.90
2023-12-11T12:13:36.570Z,4.30
2023-12-11T12:14:39.699Z,4.70
2023-12-11T12:15:43.348Z,3.10
2023-12-11T12:16:46.540Z,2.70
2023-12-11T12:17:52.973Z,2.10
2023-12-11T12:18:56.253Z,2.00
2023-12-11T12:20:00.303Z,3.30
2023-12-11T12:21:07.062Z,6.50
2023-12-11T12:22:11.971Z,8.40
2023-12-11T12:23:14.602Z,7.80
2023-12-11T12:24:17.326Z,7.20
2023-12-11T12:25:19.946Z,6.90
2023-12-11T12:26:24.574Z,5.10
2023-12-11T12:27:27.913Z,5.90
2023-12-11T12:28:30.984Z,3.10
2023-12-11T12:29:35.327Z,2.90
2023-12-11T12:30:39.231Z,2.80
2023-12-11T12:31:42.865Z,3.00
2023-12-11T12:32:50.460Z,3.50
2023-12-11T12:33:53.582Z,2.60
2023-12-11T12:34:56.435Z,2.60
2023-12-11T12:35:59.347Z,2.20
2023-12-11T12:37:03.813Z,5.64
2023-12-11T12:38:08.116Z,6.10
2023-12-11T12:39:16.112Z,5.60
2023-12-11T12:40:20.951Z,8.80
2023-12-11T12:41:23.499Z,8.70
2023-12-11T12:42:30.462Z,4.20
2023-12-11T12:43:33.044Z,5.00
2023-12-11T12:44:41.956Z,4.40
2023-12-11T12:45:44.168Z,3.80
2023-12-11T12:46:48.293Z,4.30
2023-12-11T12:47:50.614Z,5.30
2023-12-11T12:48:53.052Z,7.30
2023-12-11T12:49:56.540Z,5.60
2023-12-11T12:52:25.505Z,6.80
2023-12-11T12:53:27.719Z,3.90
2023-12-11T12:54:33.529Z,3.70
2023-12-11T12:55:35.837Z,4.60
2023-12-11T12:56:39.410Z,4.80
2023-12-11T12:57:41.854Z,4.10
2023-12-11T12:59:58.048Z,8.20
2023-12-11T13:01:01.586Z,8.00
2023-12-11T13:02:08.137Z,5.27
2023-12-11T13:03:10.839Z,5.40
2023-12-11T13:04:13.702Z,3.60
2023-12-11T13:05:16.025Z,3.45
2023-12-11T13:06:25.917Z,4.30
2023-12-11T13:07:28.635Z,4.00
2023-12-11T13:08:43.949Z,3.45
2023-12-11T13:09:46.596Z,3.30
2023-12-11T13:10:53.751Z,4.45
2023-12-11T13:11:56.557Z,3.80
2023-12-11T13:12:59.525Z,5.00
2023-12-11T13:14:01.823Z,4.91
2023-12-11T13:15:06.061Z,3.20
2023-12-11T13:16:09.767Z,3.40
2023-12-11T13:17:12.053Z,4.60
2023-12-11T13:18:14.816Z,4.20
2023-12-11T13:19:17.753Z,3.50
2023-12-11T13:20:22.915Z,3.00
2023-12-11T13:21:25.516Z,4.20
2023-12-11T13:22:28.128Z,3.00
2023-12-11T13:24:49.745Z,8.70
2023-12-11T13:25:51.953Z,7.60
2023-12-11T13:26:54.570Z,7.70
2023-12-11T13:27:56.950Z,6.10
2023-12-11T13:28:59.724Z,5.30
2023-12-11T13:30:02.402Z,7.10
2023-12-11T13:31:05.452Z,7.70
2023-12-11T13:32:08.153Z,6.20
2023-12-11T13:33:10.346Z,2.40
2023-12-11T13:34:13.319Z,10.30
2023-12-11T13:35:16.672Z,7.55
2023-12-11T13:36:21.395Z,7.40
2023-12-11T13:37:23.566Z,5.60
2023-12-11T13:38:26.551Z,5.60
2023-12-11T13:39:28.839Z,7.36
2023-12-11T13:40:31.685Z,7.20
2023-12-11T13:41:37.028Z,7.60
2023-12-11T13:42:39.340Z,9.90
2023-12-11T13:43:42.005Z,10.90
2023-12-11T13:44:44.116Z,13.70
2023-12-11T13:45:47.303Z,9.80
2023-12-11T13:46:50.428Z,12.30
2023-12-11T13:47:52.979Z,8.30
2023-12-11T13:48:55.768Z,6.90
2023-12-11T13:49:57.985Z,10.20
2023-12-11T13:51:01.100Z,13.90
2023-12-11T13:52:03.599Z,14.60
2023-12-11T13:53:06.628Z,15.70
2023-12-11T13:54:09.177Z,17.80
2023-12-11T13:55:12.328Z,13.80
2023-12-11T13:56:16.105Z,10.40
2023-12-11T13:57:22.264Z,10.20
2023-12-11T13:58:24.589Z,7.50
2023-12-11T13:59:27.173Z,7.50
2023-12-11T14:00:30.189Z,7.10
2023-12-11T14:01:32.407Z,7.10
2023-12-11T14:02:59.586Z,5.70
2023-12-11T14:03:39.476Z,5.70
2023-12-11T14:04:41.916Z,4.30
2023-12-11T14:05:44.182Z,6.20
2023-12-11T14:06:48.337Z,6.50
2023-12-11T14:07:50.529Z,7.80
2023-12-11T14:08:52.771Z,7.22
2023-12-11T14:09:55.580Z,6.20
2023-12-11T14:10:59.269Z,7.00
2023-12-11T14:12:01.842Z,6.70
2023-12-11T14:13:04.513Z,9.50
2023-12-11T14:14:06.655Z,9.00
2023-12-11T14:15:09.915Z,8.80
2023-12-11T14:16:15.650Z,7.70
2023-12-11T14:17:18.440Z,7.00
2023-12-11T14:18:21.062Z,7.00